Time;durP1;ratioP1;P1;durP2;ratioP2;P2;SDS_P1;SDS_P2;PMS_P1;PMS_P2;Temp;Humidity;BMP_temperature;BMP_pressure;BME280_temperature;BME280_humidity;BME280_pressure;Samples;Min_cycle;Max_cycle;Signal;HPM_P1;HPM_P2
2022/08/04 00:00:09;;;;;;;2.05;1.42;;;28.40;81.80;;;;;;5032043;28;20029;-25
2022/08/04 00:03:10;;;;;;;4.38;1.58;;;28.40;81.70;;;;;;5032054;28;20534;-25
2022/08/04 00:05:51;;;;;;;4.75;1.50;;;28.40;81.80;;;;;;5032196;28;20021;-25
2022/08/04 00:09:07;;;;;;;2.92;1.58;;;28.40;81.70;;;;;;5031994;28;20017;-25
2022/08/04 00:11:33;;;;;;;2.78;1.50;;;28.40;81.70;;;;;;4970681;28;20463;-25
2022/08/04 00:14:09;;;;;;;2.20;1.42;;;28.30;81.60;;;;;;5019321;28;20430;-25
2022/08/04 00:16:37;;;;;;;1.85;1.40;;;28.30;81.60;;;;;;5032054;28;20025;-25
2022/08/04 00:19:30;;;;;;;2.97;1.45;;;28.30;81.60;;;;;;5031805;28;20029;-25
2022/08/04 00:22:08;;;;;;;2.95;1.60;;;28.30;81.60;;;;;;5023651;28;20037;-25
2022/08/04 00:24:35;;;;;;;2.42;1.40;;;28.30;81.70;;;;;;5032378;28;20433;-25
2022/08/04 00:27:01;;;;;;;2.08;1.48;;;28.30;81.70;;;;;;5031837;28;20025;-25
2022/08/04 00:29:27;;;;;;;3.42;1.65;;;28.30;81.70;;;;;;5031673;28;20116;-25
2022/08/04 00:31:55;;;;;;;1.45;1.30;;;28.30;82.50;;;;;;5031812;28;20060;-25
2022/08/04 00:34:23;;;;;;;2.55;1.50;;;28.30;81.70;;;;;;5031754;28;20048;-25
2022/08/04 00:36:50;;;;;;;2.50;1.23;;;28.30;81.70;;;;;;5031841;28;20021;-25
2022/08/04 00:39:16;;;;;;;1.40;1.30;;;28.30;81.70;;;;;;5031441;28;20044;-25
2022/08/04 00:42:19;;;;;;;2.85;1.50;;;28.30;81.70;;;;;;5031862;28;20034;-25
2022/08/04 00:45:08;;;;;;;2.20;1.45;;;28.30;81.70;;;;;;5031825;28;20068;-25
2022/08/04 00:48:11;;;;;;;1.50;1.40;;;28.20;81.60;;;;;;5020868;28;20041;-25
2022/08/04 00:50:45;;;;;;;1.58;1.38;;;28.20;81.60;;;;;;5031596;28;20034;-25
2022/08/04 00:53:13;;;;;;;1.65;1.38;;;28.20;81.60;;;;;;5031497;28;20032;-25
2022/08/04 00:56:00;;;;;;;4.00;1.50;;;28.20;81.60;;;;;;5031662;28;20026;-25
2022/08/04 00:58:47;;;;;;;3.20;1.40;;;28.20;81.60;;;;;;5031479;28;20388;-25
2022/08/04 01:01:58;;;;;;;2.30;1.40;;;28.10;81.60;;;;;;5032186;28;20025;-25
2022/08/04 01:04:27;;;;;;;3.47;1.30;;;28.10;81.50;;;;;;5035707;28;20491;-25
2022/08/04 01:07:25;;;;;;;1.48;1.33;;;28.10;81.60;;;;;;5036556;28;20022;-25
2022/08/04 01:10:03;;;;;;;3.85;1.30;;;28.10;81.60;;;;;;5036718;28;20090;-25
2022/08/04 01:13:05;;;;;;;1.52;1.30;;;28.10;81.60;;;;;;5036503;28;20029;-25
2022/08/04 01:15:58;;;;;;;2.20;1.20;;;28.10;81.60;;;;;;5035913;28;20048;-25
2022/08/04 01:18:36;;;;;;;2.60;1.75;;;28.10;81.60;;;;;;5035104;28;20021;-25
2022/08/04 01:21:31;;;;;;;1.50;1.40;;;28.10;81.50;;;;;;5034982;28;20028;-25
2022/08/04 01:24:11;;;;;;;2.25;1.45;;;28.10;82.30;;;;;;5022046;28;20120;-25
2022/08/04 01:26:48;;;;;;;2.13;1.40;;;28.10;81.50;;;;;;5035078;28;20017;-25
2022/08/04 01:29:15;;;;;;;2.13;1.35;;;28.10;81.50;;;;;;5034717;28;20482;-25
2022/08/04 01:31:58;;;;;;;1.90;1.35;;;28.10;81.50;;;;;;5034877;28;20127;-25
2022/08/04 01:34:28;;;;;;;2.17;1.60;;;28.10;81.50;;;;;;5034847;28;20064;-25
2022/08/04 01:37:17;;;;;;;4.10;1.50;;;28.10;81.60;;;;;;5034883;28;20307;-25
2022/08/04 01:40:04;;;;;;;1.33;1.23;;;28.00;81.50;;;;;;5034107;28;20034;-25
2022/08/04 01:42:33;;;;;;;2.35;1.48;;;28.00;81.50;;;;;;5033625;28;20506;-25
2022/08/04 01:45:16;;;;;;;3.22;1.40;;;28.00;81.50;;;;;;5033541;28;20049;-25
2022/08/04 01:47:52;;;;;;;2.08;1.30;;;28.00;81.40;;;;;;5033568;28;20109;-25
2022/08/04 01:50:19;;;;;;;3.45;1.75;;;28.00;81.50;;;;;;5033298;28;20048;-25
2022/08/04 01:52:45;;;;;;;2.28;1.38;;;28.00;81.50;;;;;;5033395;28;20025;-25
2022/08/04 01:55:14;;;;;;;2.58;1.63;;;28.00;81.50;;;;;;5033332;28;20030;-25
2022/08/04 01:57:45;;;;;;;3.28;1.40;;;28.00;81.50;;;;;;5033289;28;20022;-25
2022/08/04 02:00:17;;;;;;;1.40;1.30;;;28.00;82.30;;;;;;5033175;28;20030;-25
2022/08/04 02:02:44;;;;;;;1.88;1.40;;;28.00;81.60;;;;;;5033077;28;20017;-25
2022/08/04 02:05:13;;;;;;;1.55;1.23;;;27.90;81.50;;;;;;5033284;28;20040;-25
2022/08/04 02:07:45;;;;;;;2.28;1.17;;;28.00;81.60;;;;;;5033156;28;20021;-25
2022/08/04 02:10:46;;;;;;;2.10;1.35;;;27.90;81.50;;;;;;5033053;28;20034;-25
2022/08/04 02:13:34;;;;;;;1.83;1.40;;;28.00;81.60;;;;;;5031998;28;20087;-25
2022/08/04 02:16:18;;;;;;;1.67;1.50;;;27.90;81.50;;;;;;5033183;28;20055;-25
2022/08/04 02:19:08;;;;;;;1.60;1.30;;;27.90;81.50;;;;;;5032861;28;20026;-25
2022/08/04 02:21:34;;;;;;;2.45;1.38;;;27.90;81.50;;;;;;5032861;28;20024;-25
2022/08/04 02:24:07;;;;;;;2.63;1.23;;;27.90;81.60;;;;;;5033136;28;20029;-25
2022/08/04 02:26:35;;;;;;;1.88;1.30;;;27.90;81.60;;;;;;5032899;28;20040;-25
2022/08/04 02:29:10;;;;;;;3.08;1.48;;;27.80;81.50;;;;;;5032634;28;20021;-25
2022/08/04 02:32:02;;;;;;;2.58;1.35;;;27.90;81.60;;;;;;5032759;28;20029;-25
2022/08/04 02:34:31;;;;;;;1.60;1.40;;;27.90;81.60;;;;;;5032815;28;20105;-25
2022/08/04 02:36:58;;;;;;;1.27;1.17;;;27.90;81.60;;;;;;5032767;28;20075;-25
2022/08/04 02:39:30;;;;;;;3.03;1.50;;;27.90;81.60;;;;;;5032515;28;20104;-25
2022/08/04 02:41:58;;;;;;;1.60;1.50;;;27.80;81.60;;;;;;4995761;28;1082937;-25
2022/08/04 02:44:27;;;;;;;2.00;1.38;;;27.80;81.50;;;;;;5033527;28;20033;-25
2022/08/04 02:46:54;;;;;;;2.13;1.60;;;27.80;81.50;;;;;;5033601;28;20477;-25
2022/08/04 02:49:23;;;;;;;1.75;1.42;;;27.80;81.60;;;;;;5015503;28;20288;-25
2022/08/04 02:51:51;;;;;;;2.00;1.40;;;27.80;81.50;;;;;;5033340;28;20163;-25
2022/08/04 02:54:21;;;;;;;2.63;1.50;;;27.80;81.60;;;;;;5033292;28;20021;-25
2022/08/04 02:56:51;;;;;;;2.83;1.38;;;27.80;81.50;;;;;;5033268;28;20047;-25
2022/08/04 02:59:19;;;;;;;1.52;1.40;;;27.80;81.60;;;;;;5033129;28;20021;-25
2022/08/04 03:01:45;;;;;;;3.10;1.50;;;27.80;81.60;;;;;;5033197;28;20131;-25
2022/08/04 03:04:16;;;;;;;2.85;1.30;;;27.70;81.50;;;;;;5033200;28;20057;-25
2022/08/04 03:06:45;;;;;;;1.65;1.30;;;27.80;81.60;;;;;;5033153;28;20033;-25
2022/08/04 03:09:34;;;;;;;3.10;1.30;;;27.80;81.60;;;;;;5032935;28;20029;-25
2022/08/04 03:12:14;;;;;;;3.08;1.58;;;27.80;81.60;;;;;;5033012;28;20116;-25
2022/08/04 03:15:15;;;;;;;1.60;1.42;;;27.80;81.60;;;;;;5032965;28;20026;-25
2022/08/04 03:17:47;;;;;;;2.70;1.40;;;27.70;81.50;;;;;;5032813;28;20019;-25
2022/08/04 03:20:49;;;;;;;2.03;1.60;;;27.70;81.60;;;;;;5032883;28;20049;-25
2022/08/04 03:23:52;;;;;;;4.60;1.50;;;27.70;81.60;;;;;;5032944;28;20021;-25
2022/08/04 03:26:26;;;;;;;1.83;1.40;;;27.70;81.60;;;;;;5032764;28;20052;-25
2022/08/04 03:29:29;;;;;;;1.73;1.42;;;27.70;81.60;;;;;;5032656;28;20108;-25
2022/08/04 03:32:00;;;;;;;3.45;1.50;;;27.70;81.60;;;;;;5024380;28;20068;-25
2022/08/04 03:34:53;;;;;;;3.63;1.45;;;27.60;81.50;;;;;;5032491;28;20056;-25
2022/08/04 03:37:28;;;;;;;1.45;1.30;;;27.60;81.60;;;;;;5032635;28;20026;-25
2022/08/04 03:40:13;;;;;;;2.95;1.50;;;27.60;81.60;;;;;;5032406;28;20017;-25
2022/08/04 03:43:14;;;;;;;2.20;1.45;;;27.60;81.60;;;;;;5032340;28;20029;-25
2022/08/04 03:46:12;;;;;;;1.50;1.38;;;27.60;81.60;;;;;;4971350;28;20505;-25
2022/08/04 03:49:36;;;;;;;2.15;1.50;;;27.60;81.60;;;;;;5023967;28;20072;-25
2022/08/04 03:55:19;;;;;;;2.38;1.30;;;27.60;81.70;;;;;;5032271;28;20133;-25
2022/08/04 03:57:58;;;;;;;2.38;1.60;;;27.60;81.70;;;;;;5032345;28;20025;-25
2022/08/04 04:00:38;;;;;;;3.10;1.75;;;27.50;81.60;;;;;;5032270;28;20443;-25
2022/08/04 04:03:37;;;;;;;2.03;1.50;;;27.50;81.60;;;;;;5032247;28;20414;-25
2022/08/04 04:06:15;;;;;;;4.00;2.55;;;27.50;81.60;;;;;;5032139;28;20025;-25
2022/08/04 04:09:18;;;;;;;4.93;2.92;;;27.50;81.60;;;;;;5031974;28;20034;-25
2022/08/04 04:12:08;;;;;;;6.45;3.13;;;27.50;81.60;;;;;;5031966;28;20061;-25
2022/08/04 04:14:43;;;;;;;5.75;2.90;;;27.50;81.60;;;;;;5031998;28;20025;-25
2022/08/04 04:17:08;;;;;;;;;;;27.50;81.60;;;;;;5032435;28;20021;-25
2022/08/04 04:20:08;;;;;;;4.75;2.80;;;27.50;81.70;;;;;;5031834;28;19912;-25
2022/08/04 04:23:04;;;;;;;3.08;2.10;;;27.50;81.70;;;;;;5031893;28;20013;-25
2022/08/04 04:25:49;;;;;;;3.13;2.40;;;27.50;81.70;;;;;;5031969;28;20475;-25
2022/08/04 04:28:44;;;;;;;2.65;2.10;;;27.40;81.70;;;;;;5031854;28;20037;-25
2022/08/04 04:31:39;;;;;;;2.80;2.00;;;27.40;81.70;;;;;;5030181;28;20045;-25
2022/08/04 04:34:08;;;;;;;6.80;1.98;;;27.40;81.70;;;;;;4977808;28;20045;-25
2022/08/04 04:36:48;;;;;;;4.07;2.00;;;27.40;81.80;;;;;;5033163;28;20537;-25
2022/08/04 04:39:42;;;;;;;3.80;2.47;;;27.40;81.80;;;;;;5035887;28;20026;-25
2022/08/04 04:42:13;;;;;;;3.33;2.07;;;27.40;81.80;;;;;;5035776;28;20022;-26
2022/08/04 04:45:02;;;;;;;3.45;1.95;;;27.40;81.90;;;;;;5035803;28;20765;-26
2022/08/04 04:47:49;;;;;;;2.85;1.90;;;27.40;81.90;;;;;;5035732;28;20036;-26
2022/08/04 04:50:49;;;;;;;4.25;1.92;;;27.30;81.90;;;;;;5035587;28;20018;-26
2022/08/04 04:53:46;;;;;;;2.20;1.92;;;27.30;81.90;;;;;;5035676;28;20021;-26
2022/08/04 04:56:21;;;;;;;2.35;1.80;;;27.40;81.90;;;;;;5035704;28;20505;-26
2022/08/04 04:58:50;;;;;;;2.63;1.90;;;27.40;82.00;;;;;;5035460;28;20068;-26
2022/08/04 05:01:18;;;;;;;3.38;1.90;;;27.30;81.90;;;;;;5035479;28;20021;-26
2022/08/04 05:04:05;;;;;;;2.63;1.80;;;27.30;81.90;;;;;;5035369;28;20017;-26
2022/08/04 05:07:19;;;;;;;2.20;1.77;;;27.30;81.90;;;;;;5035483;28;20025;-26
2022/08/04 05:10:02;;;;;;;2.88;1.92;;;27.30;82.00;;;;;;4974023;28;20571;-26
2022/08/04 05:12:31;;;;;;;2.20;1.60;;;27.30;82.00;;;;;;5029867;28;20113;-26
2022/08/04 05:14:58;;;;;;;2.45;1.80;;;27.30;82.00;;;;;;5035360;28;20045;-27
2022/08/04 05:17:35;;;;;;;2.38;1.85;;;27.30;82.00;;;;;;5035091;28;20029;-26
2022/08/04 05:20:09;;;;;;;2.53;1.85;;;27.30;82.10;;;;;;5035032;28;20068;-25
2022/08/04 05:22:35;;;;;;;;;;;27.30;82.10;;;;;;5035499;28;20088;-26
2022/08/04 05:25:11;;;;;;;2.78;1.73;;;27.30;82.10;;;;;;5035114;28;20397;-26
2022/08/04 05:27:44;;;;;;;2.38;1.80;;;27.30;82.20;;;;;;5035045;28;20094;-26
2022/08/04 05:30:11;;;;;;;2.05;1.65;;;27.30;82.20;;;;;;5034930;28;20112;-26
2022/08/04 05:32:49;;;;;;;3.28;1.85;;;27.30;82.20;;;;;;5034911;28;20029;-26
2022/08/04 05:35:27;;;;;;;2.30;1.88;;;27.30;82.20;;;;;;5035236;28;20071;-26
2022/08/04 05:37:55;;;;;;;2.33;1.63;;;27.20;82.20;;;;;;5034872;28;20033;-26
2022/08/04 05:40:23;;;;;;;2.92;1.90;;;27.20;82.20;;;;;;5034538;28;20479;-26
2022/08/04 05:42:50;;;;;;;2.45;1.80;;;27.30;82.40;;;;;;5057579;22;20156;-25
2022/08/04 05:45:18;;;;;;;1.85;1.58;;;27.30;82.40;;;;;;5034752;28;20040;-26
2022/08/04 05:47:45;;;;;;;1.60;1.42;;;27.30;82.40;;;;;;5033348;28;20022;-26
2022/08/04 05:50:13;;;;;;;2.28;1.70;;;27.30;82.40;;;;;;5034308;28;20030;-26
2022/08/04 05:52:40;;;;;;;2.67;1.67;;;27.30;82.40;;;;;;5034709;28;20116;-25
2022/08/04 05:55:08;;;;;;;2.13;1.50;;;27.30;82.50;;;;;;5034537;28;20026;-26
2022/08/04 05:57:35;;;;;;;4.95;1.70;;;27.30;82.50;;;;;;5034549;28;20022;-26
2022/08/04 06:00:05;;;;;;;2.60;1.75;;;27.30;82.60;;;;;;5034274;28;20024;-25
2022/08/04 06:02:32;;;;;;;1.45;1.35;;;27.30;82.60;;;;;;5034245;28;20087;-25
2022/08/04 06:05:00;;;;;;;1.80;1.60;;;27.30;82.80;;;;;;5034601;28;20029;-26
2022/08/04 06:07:26;;;;;;;2.45;1.70;;;27.20;82.60;;;;;;5034324;28;20025;-25
2022/08/04 06:09:52;;;;;;;3.20;1.70;;;27.30;82.70;;;;;;5034229;28;20037;-26
2022/08/04 06:12:25;;;;;;;2.00;1.70;;;27.30;82.80;;;;;;5034154;28;20026;-26
2022/08/04 06:14:55;;;;;;;1.83;1.40;;;27.30;82.80;;;;;;5034142;28;20513;-25
2022/08/04 06:17:34;;;;;;;3.33;1.50;;;27.30;82.90;;;;;;5034124;28;20048;-26
2022/08/04 06:20:01;;;;;;;1.80;1.55;;;27.30;82.90;;;;;;5016129;28;20029;-25
2022/08/04 06:22:29;;;;;;;3.38;1.60;;;27.30;83.00;;;;;;5034017;28;20017;-26
2022/08/04 06:24:56;;;;;;;2.15;1.60;;;27.30;83.00;;;;;;5034026;28;20052;-26
2022/08/04 06:27:23;;;;;;;2.08;1.65;;;27.30;83.00;;;;;;5033770;28;20033;-26
2022/08/04 06:29:51;;;;;;;2.70;1.40;;;27.30;83.00;;;;;;5033728;28;20498;-25
2022/08/04 06:32:26;;;;;;;3.78;1.70;;;27.30;83.00;;;;;;5016277;28;20087;-25
2022/08/04 06:34:57;;;;;;;2.60;1.77;;;27.30;83.00;;;;;;5033502;28;20022;-25
2022/08/04 06:37:25;;;;;;;5.60;1.98;;;27.30;83.20;;;;;;5031210;28;20079;-25
2022/08/04 06:39:51;;;;;;;7.57;1.80;;;27.10;84.80;;;;;;5033271;28;20017;-25
2022/08/04 06:42:19;;;;;;;2.92;1.65;;;26.80;85.50;;;;;;5033440;28;20037;-25
2022/08/04 06:44:51;;;;;;;3.40;1.83;;;26.50;86.50;;;;;;5033554;28;20564;-26
2022/08/04 06:47:19;;;;;;;2.45;1.75;;;26.40;86.80;;;;;;5033537;28;20033;-26
2022/08/04 06:49:47;;;;;;;4.50;1.80;;;26.40;86.30;;;;;;5033359;28;20025;-26
2022/08/04 06:52:16;;;;;;;2.67;1.67;;;26.40;86.10;;;;;;5033370;28;20116;-26
2022/08/04 06:54:52;;;;;;;2.60;1.60;;;26.30;87.20;;;;;;5033379;28;20060;-25
2022/08/04 06:57:21;;;;;;;7.60;1.85;;;26.20;87.00;;;;;;5033453;28;20029;-26
2022/08/04 06:59:50;;;;;;;3.25;1.65;;;26.20;87.30;;;;;;5032735;28;20091;-25
2022/08/04 07:02:24;;;;;;;5.65;1.90;;;26.30;86.50;;;;;;5033243;28;20360;-26
2022/08/04 07:04:50;;;;;;;3.55;1.80;;;26.40;86.70;;;;;;5033185;28;20026;-25
2022/08/04 07:07:16;;;;;;;6.03;1.70;;;26.50;87.50;;;;;;5033192;28;20029;-26
2022/08/04 07:09:42;;;;;;;6.50;1.40;;;26.40;86.90;;;;;;5032886;28;20067;-25
2022/08/04 07:12:09;;;;;;;6.22;1.65;;;26.50;85.50;;;;;;5033144;28;20029;-26
2022/08/04 07:14:36;;;;;;;4.63;1.77;;;26.60;84.40;;;;;;5032962;28;20036;-26
2022/08/04 07:17:07;;;;;;;3.60;1.20;;;26.70;83.20;;;;;;5033001;28;20018;-25
2022/08/04 07:19:36;;;;;;;6.15;1.60;;;26.70;83.00;;;;;;5032700;28;20025;-26
2022/08/04 07:22:04;;;;;;;3.08;1.48;;;26.80;82.80;;;;;;5032871;28;20029;-26
2022/08/04 07:24:35;;;;;;;5.07;1.70;;;26.90;82.80;;;;;;5032961;28;20026;-26
2022/08/04 07:27:02;;;;;;;2.65;1.50;;;27.10;82.70;;;;;;5032909;28;20025;-26
2022/08/04 07:29:28;;;;;;;1.73;1.08;;;27.20;82.60;;;;;;5032521;28;20412;-26
2022/08/04 07:31:56;;;;;;;2.20;1.50;;;27.20;82.60;;;;;;5032517;28;20090;-26
2022/08/04 07:34:23;;;;;;;5.38;1.35;;;27.20;82.40;;;;;;5032651;28;20108;-26
2022/08/04 07:36:54;;;;;;;1.88;1.35;;;27.30;82.40;;;;;;5032656;28;20028;-26
2022/08/04 07:39:21;;;;;;;6.38;1.45;;;27.30;82.40;;;;;;5032387;28;20059;-26
2022/08/04 07:41:47;;;;;;;3.47;1.40;;;27.30;82.30;;;;;;5032401;28;20017;-25
2022/08/04 07:44:14;;;;;;;1.92;1.30;;;27.40;82.40;;;;;;5032448;28;20031;-25
2022/08/04 07:46:41;;;;;;;2.08;1.30;;;27.40;82.40;;;;;;5032373;28;20095;-25
2022/08/04 07:49:08;;;;;;;3.45;1.40;;;27.40;82.30;;;;;;5032211;28;20033;-26
2022/08/04 07:51:35;;;;;;;4.03;1.60;;;27.40;82.30;;;;;;5032345;28;20037;-26
2022/08/04 07:54:03;;;;;;;1.95;1.30;;;27.40;82.30;;;;;;5032325;28;20071;-26
2022/08/04 07:56:31;;;;;;;1.48;1.30;;;27.40;82.30;;;;;;5032352;28;20072;-26
2022/08/04 07:58:57;;;;;;;1.80;1.38;;;27.50;82.40;;;;;;5014193;28;20049;-26
2022/08/04 08:01:23;;;;;;;2.13;1.40;;;27.50;82.40;;;;;;5032203;28;20053;-26
2022/08/04 08:03:51;;;;;;;1.52;1.02;;;27.50;82.40;;;;;;5032220;28;20029;-26
2022/08/04 08:06:17;;;;;;;1.50;1.20;;;27.50;82.40;;;;;;5014502;28;20033;-26
2022/08/04 08:08:43;;;;;;;1.52;1.40;;;27.50;82.40;;;;;;5014223;28;20443;-26
2022/08/04 08:11:10;;;;;;;1.48;1.30;;;27.50;82.40;;;;;;5031352;28;20109;-26
2022/08/04 08:13:36;;;;;;;3.75;1.40;;;27.50;82.40;;;;;;5031755;28;20116;-26
2022/08/04 08:16:03;;;;;;;1.90;1.40;;;27.50;82.40;;;;;;5032028;28;20100;-26
2022/08/04 08:18:29;;;;;;;1.52;1.27;;;27.50;82.40;;;;;;5031827;28;20030;-26
2022/08/04 08:20:56;;;;;;;1.67;1.33;;;27.50;82.40;;;;;;5032022;28;20032;-26
2022/08/04 08:23:21;;;;;;;2.75;1.38;;;27.50;82.40;;;;;;5014447;28;20486;-26
2022/08/04 08:25:47;;;;;;;2.90;1.17;;;27.50;82.40;;;;;;5031983;28;20057;-26
2022/08/04 08:28:15;;;;;;;2.80;1.40;;;27.50;82.30;;;;;;5031536;28;20509;-26
2022/08/04 08:30:41;;;;;;;3.20;1.35;;;27.50;82.40;;;;;;5032200;28;20490;-26
2022/08/04 08:33:11;;;;;;;1.58;1.25;;;27.60;82.40;;;;;;5031799;28;20057;-26
2022/08/04 08:36:03;;;;;;;1.60;1.05;;;27.60;82.40;;;;;;5031797;28;20483;-26
2022/08/04 08:38:59;;;;;;;2.85;1.30;;;27.60;82.30;;;;;;5031568;28;20367;-25
2022/08/04 08:42:05;;;;;;;1.25;1.15;;;27.60;82.40;;;;;;5031661;28;20036;-26
2022/08/04 08:45:02;;;;;;;1.38;1.25;;;27.60;82.40;;;;;;5031739;28;20029;-26
2022/08/04 08:47:54;;;;;;;1.40;1.30;;;27.60;82.30;;;;;;5014018;28;20101;-26
2022/08/04 08:50:51;;;;;;;2.65;1.45;;;27.70;82.40;;;;;;5031601;28;20475;-26
2022/08/04 08:53:35;;;;;;;1.70;1.33;;;27.70;82.40;;;;;;5031587;28;20037;-26
2022/08/04 08:56:14;;;;;;;;;;;27.70;82.40;;;;;;5032062;28;20144;-25
2022/08/04 08:59:04;;;;;;;2.72;1.13;;;27.70;82.30;;;;;;5031348;28;19990;-26
2022/08/04 09:02:05;;;;;;;2.22;1.13;;;27.80;82.40;;;;;;5031384;28;20029;-26
2022/08/04 09:04:36;;;;;;;1.25;1.10;;;27.80;82.40;;;;;;5031185;28;20037;-26
2022/08/04 09:07:26;;;;;;;1.48;1.30;;;27.70;82.30;;;;;;5031584;28;20032;-26
2022/08/04 09:09:52;;;;;;;2.97;1.50;;;27.80;82.30;;;;;;5031296;28;20101;-26
2022/08/04 09:12:20;;;;;;;1.15;0.93;;;27.80;82.30;;;;;;5013524;28;20048;-25
2022/08/04 09:15:01;;;;;;;1.50;1.40;;;27.80;82.30;;;;;;5031414;28;20395;-25
2022/08/04 09:17:46;;;;;;;1.20;1.10;;;27.80;82.30;;;;;;5031492;28;20025;-26
2022/08/04 09:20:38;;;;;;;1.27;1.10;;;27.80;82.30;;;;;;5031168;28;20478;-26
2022/08/04 09:23:23;;;;;;;2.15;1.20;;;27.90;82.30;;;;;;5033327;28;20021;-26
2022/08/04 09:26:10;;;;;;;1.20;1.10;;;27.90;82.30;;;;;;5035121;28;20121;-26
2022/08/04 09:28:53;;;;;;;1.80;1.23;;;27.90;82.20;;;;;;5034779;28;20026;-26
2022/08/04 09:31:29;;;;;;;1.20;1.10;;;27.90;82.10;;;;;;5035003;28;20022;-26
2022/08/04 09:34:12;;;;;;;1.40;1.20;;;28.00;82.10;;;;;;5034932;28;20487;-26
2022/08/04 09:36:54;;;;;;;1.40;1.30;;;28.00;82.00;;;;;;5034979;28;20502;-26
2022/08/04 09:39:31;;;;;;;1.48;1.10;;;28.00;82.00;;;;;;5034679;28;20028;-26
2022/08/04 09:42:11;;;;;;;1.25;0.95;;;28.00;81.90;;;;;;5034592;28;20041;-26
2022/08/04 09:45:02;;;;;;;1.52;1.13;;;28.10;81.90;;;;;;5035141;28;20025;-25
2022/08/04 09:47:42;;;;;;;1.30;1.17;;;28.00;81.80;;;;;;5034634;28;20068;-26
2022/08/04 09:50:26;;;;;;;1.42;1.20;;;28.10;81.80;;;;;;5034499;28;20029;-25
2022/08/04 09:53:05;;;;;;;1.13;1.02;;;28.10;81.80;;;;;;5034578;28;20030;-26
2022/08/04 09:55:33;;;;;;;1.58;1.08;;;28.10;81.70;;;;;;5034472;28;20057;-26
2022/08/04 09:58:36;;;;;;;1.30;1.05;;;28.20;81.60;;;;;;5034492;28;20060;-26
2022/08/04 10:01:07;;;;;;;1.65;1.20;;;28.20;81.60;;;;;;4997667;28;20037;-25
2022/08/04 10:03:44;;;;;;;1.13;1.02;;;28.20;81.40;;;;;;5034384;28;20009;-25
2022/08/04 10:06:13;;;;;;;1.20;1.10;;;28.30;81.40;;;;;;5034782;28;20467;-26
2022/08/04 10:08:57;;;;;;;2.03;1.17;;;28.30;81.40;;;;;;5034094;28;20103;-26
2022/08/04 10:11:50;;;;;;;1.70;1.25;;;28.30;81.20;;;;;;5034120;28;20478;-27
2022/08/04 10:14:37;;;;;;;1.65;1.00;;;28.30;81.10;;;;;;5034142;28;20033;-25
2022/08/04 10:17:30;;;;;;;1.30;0.90;;;28.30;81.00;;;;;;5034229;28;20025;-26
2022/08/04 10:20:06;;;;;;;1.40;1.00;;;28.40;81.10;;;;;;5034080;28;20348;-26
2022/08/04 10:22:48;;;;;;;1.80;1.20;;;28.40;81.00;;;;;;5034056;28;20072;-26
2022/08/04 10:25:51;;;;;;;1.20;1.10;;;28.40;80.90;;;;;;5034118;28;20032;-26
2022/08/04 10:28:22;;;;;;;1.20;1.10;;;28.40;80.90;;;;;;5033804;28;20025;-26
2022/08/04 10:31:08;;;;;;;1.52;1.10;;;28.40;80.90;;;;;;5034011;28;20033;-26
2022/08/04 10:34:00;;;;;;;2.72;1.13;;;28.40;80.80;;;;;;5033451;28;20028;-26
2022/08/04 10:36:30;;;;;;;1.70;1.13;;;28.50;80.80;;;;;;5036890;28;20021;-26
2022/08/04 10:39:08;;;;;;;0.88;0.80;;;28.40;80.70;;;;;;5034302;28;20033;-26
2022/08/04 10:41:54;;;;;;;2.80;1.30;;;28.40;80.70;;;;;;5033915;28;20086;-26
2022/08/04 10:44:35;;;;;;;1.20;1.08;;;28.50;80.70;;;;;;5034450;28;20030;-25
2022/08/04 10:47:06;;;;;;;1.90;1.10;;;28.50;80.70;;;;;;5033530;28;20438;-26
2022/08/04 10:49:49;;;;;;;1.40;0.93;;;28.50;80.60;;;;;;5015575;28;20036;-26
2022/08/04 10:52:36;;;;;;;1.50;1.10;;;28.50;80.60;;;;;;5033600;28;20470;-25
2022/08/04 10:55:35;;;;;;;1.63;1.30;;;28.50;80.50;;;;;;5033481;28;20044;-25
2022/08/04 10:58:05;;;;;;;1.25;1.10;;;28.50;80.40;;;;;;5025770;28;20033;-25
2022/08/04 11:00:34;;;;;;;1.17;1.08;;;28.50;80.20;;;;;;5033192;28;20029;-25
2022/08/04 11:03:07;;;;;;;1.23;1.00;;;28.50;80.20;;;;;;5033186;28;20021;-26
2022/08/04 11:05:45;;;;;;;1.67;1.13;;;28.50;80.30;;;;;;5033261;28;20025;-26
2022/08/04 11:08:15;;;;;;;1.15;1.05;;;28.50;80.20;;;;;;5033012;28;20033;-26
2022/08/04 11:10:51;;;;;;;1.13;1.00;;;28.50;80.20;;;;;;5032979;28;20060;-26
2022/08/04 11:13:17;;;;;;;1.30;1.00;;;28.60;80.20;;;;;;5033219;28;20491;-25
2022/08/04 11:15:51;;;;;;;1.88;1.10;;;28.60;80.10;;;;;;5033095;28;20033;-26
2022/08/04 11:18:40;;;;;;;;;;;28.60;80.10;;;;;;5033285;28;20101;-25
2022/08/04 11:21:18;;;;;;;1.10;1.00;;;28.60;80.00;;;;;;4995374;28;19912;-25
2022/08/04 11:23:53;;;;;;;1.67;1.10;;;28.60;80.00;;;;;;5032912;28;20386;-26
2022/08/04 11:26:28;;;;;;;1.10;1.00;;;28.70;80.00;;;;;;5032934;28;20017;-25
2022/08/04 11:29:19;;;;;;;1.27;0.93;;;28.70;79.80;;;;;;5014899;28;20383;-25
2022/08/04 11:31:48;;;;;;;1.70;1.00;;;28.70;79.80;;;;;;5032698;28;20039;-25
2022/08/04 11:34:24;;;;;;;1.95;1.23;;;28.80;79.80;;;;;;5032648;28;20104;-26
2022/08/04 11:37:12;;;;;;;1.10;1.00;;;28.80;79.80;;;;;;5032709;28;20018;-25
2022/08/04 11:39:50;;;;;;;1.10;1.00;;;28.70;79.70;;;;;;5032241;28;20029;-26
2022/08/04 11:42:29;;;;;;;1.30;1.00;;;28.70;80.60;;;;;;5039763;22;20026;-26
2022/08/04 11:44:59;;;;;;;1.50;1.30;;;28.70;80.10;;;;;;5012738;28;20034;-26
2022/08/04 11:47:50;;;;;;;1.20;1.10;;;28.60;80.10;;;;;;5012808;28;20034;-26
2022/08/04 11:50:30;;;;;;;3.25;1.05;;;28.60;80.20;;;;;;5011835;28;20060;-26
2022/08/04 11:52:58;;;;;;;1.13;0.80;;;28.50;80.30;;;;;;5012536;28;20113;-26
2022/08/04 11:55:26;;;;;;;1.48;1.10;;;28.50;80.50;;;;;;5012572;28;20073;-26
2022/08/04 11:57:53;;;;;;;1.90;1.08;;;28.50;80.70;;;;;;5012584;28;20046;-26
2022/08/04 12:00:19;;;;;;;1.80;0.90;;;28.50;80.70;;;;;;5012433;28;20034;-26
2022/08/04 12:03:06;;;;;;;2.28;1.10;;;28.50;80.60;;;;;;5011297;28;20061;-26
2022/08/04 12:05:42;;;;;;;10.85;1.17;;;28.60;80.60;;;;;;5012393;28;20030;-26
2022/08/04 12:08:52;;;;;;;6.07;1.48;;;28.90;74.10;;;;;;5012306;28;20088;-26
2022/08/04 12:11:41;;;;;;;3.05;1.38;;;29.40;73.40;;;;;;5012492;28;20533;-26
2022/08/04 12:14:25;;;;;;;8.13;1.45;;;29.50;74.70;;;;;;5012447;28;20030;-26
2022/08/04 12:16:57;;;;;;;1.92;1.30;;;29.50;74.50;;;;;;5012399;28;20471;-26
2022/08/04 12:19:26;;;;;;;3.28;1.48;;;29.40;75.00;;;;;;5012114;28;20062;-26
2022/08/04 12:21:56;;;;;;;4.13;1.20;;;29.40;75.40;;;;;;5012179;28;20022;-26
2022/08/04 12:24:29;;;;;;;3.58;1.30;;;29.40;75.90;;;;;;5012122;28;20105;-26
2022/08/04 12:27:01;;;;;;;3.80;1.27;;;29.30;76.10;;;;;;5012492;28;20108;-26
2022/08/04 12:29:32;;;;;;;2.75;1.30;;;29.20;76.30;;;;;;5011977;28;20030;-26
2022/08/04 12:32:07;;;;;;;2.35;1.20;;;29.20;76.60;;;;;;5012227;28;20030;-26
2022/08/04 12:34:38;;;;;;;4.13;1.30;;;29.20;76.90;;;;;;5011968;28;20054;-26
2022/08/04 12:37:17;;;;;;;3.50;1.30;;;29.20;77.00;;;;;;5012043;28;20032;-26
2022/08/04 12:39:47;;;;;;;3.10;1.33;;;29.10;77.00;;;;;;5011945;28;20049;-26
2022/08/04 12:42:21;;;;;;;1.50;1.08;;;29.10;77.10;;;;;;5011976;28;20111;-26
2022/08/04 12:44:52;;;;;;;1.52;1.30;;;29.20;77.30;;;;;;5012051;28;20041;-26
2022/08/04 12:47:26;;;;;;;2.30;1.30;;;29.20;77.40;;;;;;5012078;28;20030;-26
2022/08/04 12:49:53;;;;;;;4.07;1.40;;;29.10;77.40;;;;;;5012042;28;20030;-26
2022/08/04 12:52:20;;;;;;;1.67;1.30;;;29.10;77.50;;;;;;5011960;28;20114;-26
2022/08/04 12:54:52;;;;;;;1.73;1.17;;;29.20;77.70;;;;;;5011900;28;20522;-26
2022/08/04 12:57:20;;;;;;;1.48;0.93;;;29.20;77.80;;;;;;5012607;28;20084;-26
2022/08/04 12:59:46;;;;;;;2.58;1.30;;;29.20;77.90;;;;;;5015693;28;20479;-26
2022/08/04 13:02:24;;;;;;;1.52;1.10;;;29.20;77.90;;;;;;5015912;28;20113;-26
2022/08/04 13:04:51;;;;;;;1.73;1.20;;;29.20;77.90;;;;;;5015788;28;20025;-26
2022/08/04 13:07:23;;;;;;;1.48;1.20;;;29.10;77.90;;;;;;5015640;28;20029;-26
2022/08/04 13:09:50;;;;;;;1.10;1.00;;;29.20;78.00;;;;;;5014320;28;20099;-26
2022/08/04 13:12:28;;;;;;;1.95;1.25;;;29.20;78.10;;;;;;5015811;28;20112;-26
2022/08/04 13:15:13;;;;;;;1.33;1.20;;;29.20;78.10;;;;;;5015801;28;20468;-26
2022/08/04 13:18:07;;;;;;;1.83;1.27;;;29.20;78.10;;;;;;5015834;28;20069;-26
2022/08/04 13:20:35;;;;;;;1.85;0.95;;;29.20;78.00;;;;;;5015414;28;20030;-26
2022/08/04 13:23:13;;;;;;;2.58;1.27;;;29.20;78.10;;;;;;5015505;28;20026;-26
2022/08/04 13:25:54;;;;;;;2.58;1.20;;;29.20;78.90;;;;;;5015334;28;20037;-26
2022/08/04 13:28:26;;;;;;;1.65;1.10;;;29.20;78.20;;;;;;5015089;28;20172;-26
2022/08/04 13:30:55;;;;;;;2.17;1.25;;;29.10;78.30;;;;;;5015219;28;20029;-26
2022/08/04 13:33:32;;;;;;;2.88;0.90;;;29.10;78.50;;;;;;5015202;28;20423;-26
2022/08/04 13:35:59;;;;;;;1.40;1.10;;;29.10;79.40;;;;;;5015125;28;20545;-26
2022/08/04 13:38:27;;;;;;;2.35;1.27;;;29.00;78.80;;;;;;5014960;28;20022;-26
2022/08/04 13:40:58;;;;;;;2.22;1.20;;;29.00;78.90;;;;;;5015169;28;20022;-26